createdAt,value
2022-11-09T00:01:12.332Z,94880.22
2022-11-09T00:03:38.800Z,94873.91
2022-11-09T00:06:05.287Z,94882.53
2022-11-09T00:08:31.871Z,94879.91
2022-11-09T00:11:06.056Z,94884.44
2022-11-09T00:13:36.176Z,94884.81
2022-11-09T00:16:02.602Z,94886.41
2022-11-09T00:18:29.608Z,94882.31
2022-11-09T00:20:56.308Z,94875.03
2022-11-09T00:23:23.306Z,94881.00
2022-11-09T00:25:49.936Z,94885.31
2022-11-09T00:28:16.455Z,94875.50
2022-11-09T00:30:42.959Z,94884.31
2022-11-09T00:33:09.462Z,94882.09
2022-11-09T00:35:38.380Z,94884.50
2022-11-09T00:38:04.970Z,94881.84
2022-11-09T00:40:31.452Z,94868.75
2022-11-09T00:42:58.007Z,94873.47
2022-11-09T00:45:24.556Z,94867.03
2022-11-09T00:47:52.173Z,94863.75
2022-11-09T00:50:18.791Z,94860.28
2022-11-09T00:52:45.483Z,94854.63
2022-11-09T00:55:12.028Z,94856.72
2022-11-09T00:57:38.526Z,94854.25
2022-11-09T01:00:05.916Z,94851.97
2022-11-09T01:02:32.624Z,94854.63
2022-11-09T01:04:59.159Z,94847.06
2022-11-09T01:07:25.780Z,94856.13
2022-11-09T01:09:52.256Z,94846.31
2022-11-09T01:12:20.596Z,94851.19
2022-11-09T01:14:47.212Z,94862.44
2022-11-09T01:17:13.695Z,94855.81
2022-11-09T01:19:40.526Z,94858.22
2022-11-09T01:22:07.034Z,94867.34
2022-11-09T01:24:33.534Z,94872.72
2022-11-09T01:26:59.996Z,94856.31
2022-11-09T01:29:26.460Z,94866.69
2022-11-09T01:31:55.116Z,94875.28
2022-11-09T01:34:21.852Z,94866.44
2022-11-09T01:36:51.830Z,94876.72
2022-11-09T01:39:19.011Z,94883.97
2022-11-09T01:41:46.160Z,94872.97
2022-11-09T01:44:14.040Z,94879.16
2022-11-09T01:46:45.580Z,94872.34
2022-11-09T01:49:42.220Z,94875.06
2022-11-09T01:52:22.292Z,94878.22
2022-11-09T01:54:53.636Z,94882.59
2022-11-09T01:57:24.839Z,94884.84
2022-11-09T01:59:56.187Z,94886.03
2022-11-09T02:02:23.014Z,94891.34
2022-11-09T02:04:54.521Z,94888.19
2022-11-09T02:07:22.051Z,94892.50
2022-11-09T02:10:04.637Z,94897.25
2022-11-09T02:12:33.590Z,94906.31
2022-11-09T02:15:02.339Z,94908.53
2022-11-09T02:17:29.437Z,94903.44
2022-11-09T02:19:59.244Z,94902.00
2022-11-09T02:22:26.179Z,94903.44
2022-11-09T02:24:56.284Z,94901.53
2022-11-09T02:27:23.413Z,94898.63
2022-11-09T02:29:50.223Z,94884.63
2022-11-09T02:32:21.089Z,94902.09
2022-11-09T02:34:47.563Z,94893.31
2022-11-09T02:37:25.838Z,94912.53
2022-11-09T02:39:52.335Z,94910.34
2022-11-09T02:42:21.719Z,94903.84
2022-11-09T02:44:52.647Z,94901.34
2022-11-09T02:47:21.425Z,94898.59
2022-11-09T02:49:48.150Z,94889.47
2022-11-09T02:52:14.641Z,94882.94
2022-11-09T02:54:44.694Z,94875.31
2022-11-09T02:57:11.380Z,94881.88
2022-11-09T02:59:37.858Z,94894.47
2022-11-09T03:02:04.329Z,94894.47
2022-11-09T03:04:30.789Z,94884.53
2022-11-09T03:06:57.358Z,94887.75
2022-11-09T03:09:24.050Z,94891.22
2022-11-09T03:11:50.490Z,94894.59
2022-11-09T03:14:17.211Z,94913.88
2022-11-09T03:16:49.126Z,94913.16
2022-11-09T03:19:16.877Z,94918.22
2022-11-09T03:21:43.360Z,94907.78
2022-11-09T03:24:09.907Z,94912.72
2022-11-09T03:26:36.466Z,94903.06
2022-11-09T03:29:02.981Z,94902.34
2022-11-09T03:31:29.491Z,94911.09
2022-11-09T03:33:55.986Z,94920.75
2022-11-09T03:36:22.466Z,94913.59
2022-11-09T03:38:48.969Z,94930.50
2022-11-09T03:41:15.446Z,94946.06
2022-11-09T03:43:41.929Z,94946.84
2022-11-09T03:46:08.430Z,94952.81
2022-11-09T03:48:34.887Z,94954.06
2022-11-09T03:51:01.419Z,94947.94
2022-11-09T03:53:27.999Z,94962.19
2022-11-09T03:55:57.591Z,94975.00
2022-11-09T03:58:24.108Z,94992.69
2022-11-09T04:00:50.625Z,94978.63
2022-11-09T04:03:17.364Z,94979.53
2022-11-09T04:05:43.988Z,94992.16
2022-11-09T04:08:10.433Z,94991.19
2022-11-09T04:10:36.979Z,95000.69
2022-11-09T04:13:19.495Z,94995.91
2022-11-09T04:15:46.141Z,94970.13
2022-11-09T04:18:14.390Z,94988.78
2022-11-09T04:20:40.990Z,95010.91
2022-11-09T04:23:09.784Z,95010.78
2022-11-09T04:25:37.671Z,95014.91
2022-11-09T04:28:05.829Z,95014.63
2022-11-09T04:30:33.847Z,95011.06
2022-11-09T04:33:00.943Z,95003.44
2022-11-09T04:35:29.047Z,95013.88
2022-11-09T04:38:00.407Z,95015.41
2022-11-09T04:40:28.496Z,94999.63
2022-11-09T04:42:54.977Z,94994.25
2022-11-09T04:45:23.993Z,95018.19
2022-11-09T04:47:50.512Z,95008.59
2022-11-09T04:50:17.081Z,95009.84
2022-11-09T04:52:43.675Z,95012.88
2022-11-09T04:55:10.174Z,95035.19
2022-11-09T04:57:36.638Z,95040.50
2022-11-09T05:00:04.454Z,95050.84
2022-11-09T05:02:31.051Z,95032.13
2022-11-09T05:04:57.560Z,95035.75
2022-11-09T05:07:24.056Z,95048.50
2022-11-09T05:09:53.344Z,95041.53
2022-11-09T05:12:19.896Z,95035.69
2022-11-09T05:14:46.476Z,95032.13
2022-11-09T05:17:12.962Z,95031.56
2022-11-09T05:19:39.435Z,95046.53
2022-11-09T05:22:05.919Z,95029.34
2022-11-09T05:24:32.438Z,95042.34
2022-11-09T05:26:59.011Z,95056.66
2022-11-09T05:29:25.490Z,95068.97
2022-11-09T05:31:52.560Z,95070.13
2022-11-09T05:34:19.431Z,95069.47
2022-11-09T05:36:46.005Z,95072.56
2022-11-09T05:39:12.494Z,95066.00
2022-11-09T05:41:38.966Z,95054.81
2022-11-09T05:44:05.441Z,95052.50
2022-11-09T05:46:32.047Z,95037.19
2022-11-09T05:48:58.524Z,95034.53
2022-11-09T05:51:25.337Z,95035.22
2022-11-09T05:53:51.979Z,95034.09
2022-11-09T05:56:18.489Z,95027.63
2022-11-09T05:58:44.976Z,95034.22
2022-11-09T06:01:14.151Z,95042.94
2022-11-09T06:03:41.025Z,95041.22
2022-11-09T06:06:09.192Z,95028.06
2022-11-09T06:08:36.246Z,95024.97
2022-11-09T06:11:11.255Z,95028.16
2022-11-09T06:13:37.858Z,95027.72
2022-11-09T06:16:05.700Z,95016.16
2022-11-09T06:18:33.732Z,95020.75
2022-11-09T06:21:02.453Z,95015.50
2022-11-09T06:23:29.421Z,95023.16
2022-11-09T06:26:05.092Z,95031.44
2022-11-09T06:28:31.609Z,95020.13
2022-11-09T06:31:15.897Z,95026.44
2022-11-09T06:33:42.496Z,95028.06
2022-11-09T06:36:10.381Z,95026.91
2022-11-09T06:38:36.930Z,95023.00
2022-11-09T06:41:03.491Z,95022.53
2022-11-09T06:43:30.095Z,95031.41
2022-11-09T06:45:56.732Z,95028.63
2022-11-09T06:48:23.599Z,95034.63
2022-11-09T06:50:50.098Z,95035.00
2022-11-09T06:53:18.046Z,95028.97
2022-11-09T06:55:50.299Z,95044.44
2022-11-09T06:58:17.714Z,95051.13
2022-11-09T07:00:44.726Z,95046.00
2022-11-09T07:03:15.595Z,95050.97
2022-11-09T07:05:42.697Z,95045.41
2022-11-09T07:08:09.248Z,95067.22
2022-11-09T07:10:36.235Z,95069.22
2022-11-09T07:13:02.771Z,95070.84
2022-11-09T07:15:29.304Z,95073.47
2022-11-09T07:18:00.174Z,95075.69
2022-11-09T07:20:27.466Z,95068.66
2022-11-09T07:22:53.958Z,95073.94
2022-11-09T07:25:20.869Z,95075.34
2022-11-09T07:27:47.621Z,95078.91
2022-11-09T07:30:22.955Z,95070.56
2022-11-09T07:35:36.012Z,95065.53
2022-11-09T07:38:02.670Z,95062.44
2022-11-09T07:40:30.501Z,95067.94
2022-11-09T07:43:00.990Z,95058.03
2022-11-09T07:45:28.801Z,95062.75
2022-11-09T07:47:59.722Z,95075.78
2022-11-09T07:50:27.368Z,95078.63
2022-11-09T07:52:57.880Z,95075.00
2022-11-09T07:55:25.097Z,95087.44
2022-11-09T07:57:56.366Z,95072.91
2022-11-09T08:00:23.942Z,95072.81
2022-11-09T08:02:50.603Z,95077.22
2022-11-09T08:05:17.315Z,95072.56
2022-11-09T08:07:43.814Z,95064.19
2022-11-09T08:10:10.624Z,95071.94
2022-11-09T08:12:37.520Z,95067.13
2022-11-09T08:15:05.070Z,95058.22
2022-11-09T08:17:32.221Z,95051.72
2022-11-09T08:19:58.972Z,95049.78
2022-11-09T08:22:25.506Z,95050.91
2022-11-09T08:24:51.987Z,95050.97
2022-11-09T08:27:18.814Z,95040.56
2022-11-09T08:29:45.380Z,95056.25
2022-11-09T08:32:12.330Z,95050.94
2022-11-09T08:34:38.820Z,95055.31
2022-11-09T08:37:05.553Z,95065.25
2022-11-09T08:39:32.086Z,95062.59
2022-11-09T08:41:58.561Z,95054.28
2022-11-09T08:44:25.059Z,95059.16
2022-11-09T08:46:52.561Z,95080.94
2022-11-09T08:49:19.047Z,95066.66
2022-11-09T08:51:45.532Z,95077.91
2022-11-09T08:54:12.002Z,95082.19
2022-11-09T08:56:38.529Z,95076.81
2022-11-09T08:59:05.026Z,95073.59
2022-11-09T09:01:31.568Z,95085.81
2022-11-09T09:03:58.038Z,95082.75
2022-11-09T09:06:29.752Z,95081.38
2022-11-09T09:08:57.476Z,95084.28
2022-11-09T09:11:24.060Z,95083.84
2022-11-09T09:13:50.524Z,95085.66
2022-11-09T09:16:17.047Z,95075.94
2022-11-09T09:18:43.569Z,95071.22
2022-11-09T09:21:10.608Z,95068.69
2022-11-09T09:23:37.479Z,95078.03
2022-11-09T09:26:04.114Z,95069.59
2022-11-09T09:28:30.686Z,95072.00
2022-11-09T09:30:58.629Z,95063.28
2022-11-09T09:33:25.726Z,95062.31
2022-11-09T09:35:52.420Z,95068.34
2022-11-09T09:38:19.218Z,95056.66
2022-11-09T09:40:57.633Z,95065.50
2022-11-09T09:43:27.663Z,95064.22
2022-11-09T09:45:54.377Z,95070.59
2022-11-09T09:48:31.604Z,95066.25
2022-11-09T09:51:11.095Z,95071.47
2022-11-09T09:53:44.287Z,95068.63
2022-11-09T09:56:29.004Z,95071.38
2022-11-09T09:59:40.034Z,95074.69
2022-11-09T10:02:25.308Z,95072.97
2022-11-09T10:04:59.048Z,95068.78
2022-11-09T10:08:00.085Z,95075.84
2022-11-09T10:11:03.436Z,95075.75
2022-11-09T10:13:55.955Z,95069.22
2022-11-09T10:16:39.340Z,95061.81
2022-11-09T10:19:34.028Z,95071.03
2022-11-09T10:22:14.454Z,95060.94
2022-11-09T10:25:16.796Z,95065.03
2022-11-09T10:27:54.463Z,95071.75
2022-11-09T10:30:26.997Z,95057.38
2022-11-09T10:33:14.455Z,95047.72
2022-11-09T10:35:43.654Z,95043.50
2022-11-09T10:38:15.139Z,95057.00
2022-11-09T10:40:48.633Z,95054.75
2022-11-09T10:43:15.373Z,95049.41
2022-11-09T10:45:44.123Z,95055.66
2022-11-09T10:48:13.050Z,95059.66
2022-11-09T10:50:50.366Z,95056.66
2022-11-09T10:53:18.937Z,95050.28
2022-11-09T10:55:57.391Z,95054.84
2022-11-09T10:58:37.321Z,95043.16
2022-11-09T11:01:09.721Z,95048.44
2022-11-09T11:03:36.659Z,95041.19
2022-11-09T11:06:12.423Z,95042.81
2022-11-09T11:08:47.033Z,95047.50
2022-11-09T11:11:33.287Z,95038.63
2022-11-09T11:14:34.197Z,95044.13
2022-11-09T11:17:01.113Z,95045.91
2022-11-09T11:19:40.357Z,95039.59
2022-11-09T11:22:14.071Z,95044.28
2022-11-09T11:24:58.930Z,95039.97
2022-11-09T11:27:37.293Z,95042.44
2022-11-09T11:30:13.149Z,95026.09
2022-11-09T11:32:41.329Z,95032.41
2022-11-09T11:35:16.870Z,95020.59
2022-11-09T11:37:47.052Z,95025.50
2022-11-09T11:40:13.461Z,95029.81
2022-11-09T11:43:06.126Z,95037.72
2022-11-09T11:45:41.549Z,95035.53
2022-11-09T11:48:27.248Z,95036.91
2022-11-09T11:51:02.839Z,95033.81
2022-11-09T11:53:39.372Z,95025.50
2022-11-09T11:56:33.850Z,95022.00
2022-11-09T11:59:32.158Z,95027.06
2022-11-09T12:02:21.484Z,95012.28
2022-11-09T12:04:58.599Z,95015.59
2022-11-09T12:07:28.058Z,95015.97
2022-11-09T12:10:11.761Z,95023.22
2022-11-09T12:12:52.299Z,95030.00
2022-11-09T12:15:56.468Z,95024.34
2022-11-09T12:18:45.434Z,95020.47
2022-11-09T12:21:32.400Z,95024.09
2022-11-09T12:24:15.929Z,95027.44
2022-11-09T12:27:33.240Z,95028.94
2022-11-09T12:30:12.951Z,95032.53
2022-11-09T12:32:55.732Z,95044.81
2022-11-09T12:35:56.067Z,95058.97
2022-11-09T12:38:39.793Z,95072.69
2022-11-09T12:41:28.113Z,95060.03
2022-11-09T12:44:14.475Z,95036.06
2022-11-09T12:46:50.095Z,95015.06
2022-11-09T12:49:42.921Z,95019.25
2022-11-09T12:52:16.317Z,95015.16
2022-11-09T12:54:47.647Z,95015.78
2022-11-09T12:57:30.364Z,95014.03
2022-11-09T13:00:00.952Z,95019.50
2022-11-09T13:02:36.175Z,95028.38
2022-11-09T13:05:08.532Z,95031.94
2022-11-09T13:07:50.032Z,95037.00
2022-11-09T13:10:29.462Z,95034.50
2022-11-09T13:13:11.331Z,95034.66
2022-11-09T13:15:39.691Z,95022.59
2022-11-09T13:18:22.803Z,95025.81
2022-11-09T13:20:55.872Z,95024.75
2022-11-09T13:23:47.682Z,95042.13
2022-11-09T13:26:32.437Z,95049.00
2022-11-09T13:29:23.571Z,95055.47
2022-11-09T13:32:04.570Z,95043.00
2022-11-09T13:34:53.326Z,95060.44
2022-11-09T13:37:38.673Z,95066.03
2022-11-09T13:40:33.073Z,95061.56
2022-11-09T13:43:09.588Z,95064.31
2022-11-09T13:45:54.835Z,95056.31
2022-11-09T13:48:32.943Z,95065.44
2022-11-09T13:51:23.380Z,95061.63
2022-11-09T13:54:02.816Z,95066.56
2022-11-09T13:56:29.311Z,95071.06
2022-11-09T13:59:07.964Z,95073.94
2022-11-09T14:01:38.504Z,95075.97
2022-11-09T14:04:05.275Z,95062.56
2022-11-09T14:06:35.257Z,95074.34
2022-11-09T14:09:02.935Z,95084.88
2022-11-09T14:11:35.422Z,95097.97
2022-11-09T14:14:33.635Z,95102.41
2022-11-09T14:17:10.378Z,95112.31
2022-11-09T14:19:58.167Z,95110.97
2022-11-09T14:22:26.283Z,95119.31
2022-11-09T14:24:52.929Z,95126.91
2022-11-09T14:27:21.331Z,95125.22
2022-11-09T14:29:55.848Z,95133.03
2022-11-09T14:32:33.892Z,95129.06
2022-11-09T14:35:32.744Z,95142.88
2022-11-09T14:38:02.641Z,95140.84
2022-11-09T14:40:32.657Z,95134.56
2022-11-09T14:43:21.857Z,95140.03
2022-11-09T14:45:53.355Z,95154.53
2022-11-09T14:48:23.351Z,95159.38
2022-11-09T14:50:52.541Z,95160.00
2022-11-09T14:53:21.540Z,95169.81
2022-11-09T14:55:53.387Z,95172.94
2022-11-09T14:58:21.475Z,95173.22
2022-11-09T15:01:09.457Z,95199.56
2022-11-09T15:03:36.157Z,95191.81
2022-11-09T15:06:05.344Z,95187.97
2022-11-09T15:08:32.071Z,95200.22
2022-11-09T15:10:58.622Z,95195.44
2022-11-09T15:13:37.015Z,95207.56
2022-11-09T15:16:05.240Z,95211.31
2022-11-09T15:18:34.588Z,95211.38
2022-11-09T15:21:18.928Z,95211.53
2022-11-09T15:24:23.126Z,95222.78
2022-11-09T15:26:50.611Z,95229.13
2022-11-09T15:29:37.926Z,95238.72
2022-11-09T15:32:10.525Z,95237.16
2022-11-09T15:34:40.709Z,95229.66
2022-11-09T15:37:19.274Z,95240.81
2022-11-09T15:39:45.839Z,95243.47
2022-11-09T15:42:13.531Z,95238.41
2022-11-09T15:44:40.039Z,95252.94
2022-11-09T15:47:20.640Z,95245.38
2022-11-09T15:49:47.285Z,95246.06
2022-11-09T15:52:13.758Z,95235.25
2022-11-09T15:54:44.062Z,95221.84
2022-11-09T15:57:18.268Z,95221.19
2022-11-09T15:59:48.239Z,95208.97
2022-11-09T16:02:19.589Z,95210.47
2022-11-09T16:04:46.132Z,95197.91
2022-11-09T16:07:16.019Z,95190.97
2022-11-09T16:09:43.040Z,95187.41
2022-11-09T16:12:09.909Z,95180.97
2022-11-09T16:14:36.706Z,95192.13
2022-11-09T16:17:04.374Z,95193.31
2022-11-09T16:19:30.873Z,95191.19
2022-11-09T16:21:57.430Z,95189.84
2022-11-09T16:24:24.051Z,95201.34
2022-11-09T16:26:50.554Z,95210.34
2022-11-09T16:29:17.096Z,95215.66
2022-11-09T16:31:52.178Z,95229.16
2022-11-09T16:34:19.199Z,95234.00
2022-11-09T16:36:50.875Z,95237.22
2022-11-09T16:39:17.535Z,95235.72
2022-11-09T16:41:50.225Z,95235.59
2022-11-09T16:44:18.723Z,95244.59
2022-11-09T16:46:47.214Z,95250.59
2022-11-09T16:49:13.876Z,95255.25
2022-11-09T16:51:40.722Z,95247.97
2022-11-09T16:54:07.195Z,95252.59
2022-11-09T16:56:36.424Z,95261.25
2022-11-09T16:59:03.215Z,95268.97
2022-11-09T17:01:29.779Z,95266.19
2022-11-09T17:03:57.433Z,95276.59
2022-11-09T17:06:24.263Z,95278.22
2022-11-09T17:08:50.864Z,95284.22
2022-11-09T17:11:17.360Z,95290.69
2022-11-09T17:13:43.851Z,95291.81
2022-11-09T17:16:12.330Z,95299.28
2022-11-09T17:18:38.902Z,95302.44
2022-11-09T17:21:12.839Z,95292.00
2022-11-09T17:23:39.319Z,95294.88
2022-11-09T17:26:07.701Z,95294.44
2022-11-09T17:28:38.755Z,95298.31
2022-11-09T17:31:08.973Z,95297.75
2022-11-09T17:33:35.582Z,95289.34
2022-11-09T17:36:04.945Z,95300.53
2022-11-09T17:38:31.532Z,95303.09
2022-11-09T17:41:05.185Z,95298.44
2022-11-09T17:43:33.085Z,95301.69
2022-11-09T17:46:10.412Z,95297.06
2022-11-09T17:48:38.324Z,95298.00
2022-11-09T17:51:06.224Z,95305.63
2022-11-09T17:53:32.865Z,95301.03
2022-11-09T17:55:59.767Z,95308.88
2022-11-09T17:58:26.427Z,95311.31
2022-11-09T18:00:53.204Z,95311.22
2022-11-09T18:03:22.582Z,95305.09
2022-11-09T18:05:49.364Z,95312.72
2022-11-09T18:08:18.659Z,95302.34
2022-11-09T18:10:47.920Z,95304.41
2022-11-09T18:13:14.375Z,95321.84
2022-11-09T18:15:40.905Z,95315.38
2022-11-09T18:18:12.336Z,95315.38
2022-11-09T18:20:38.852Z,95329.06
2022-11-09T18:23:05.382Z,95328.75
2022-11-09T18:25:31.892Z,95334.88
2022-11-09T18:27:58.383Z,95329.69
2022-11-09T18:30:24.932Z,95331.28
2022-11-09T18:32:52.193Z,95328.88
2022-11-09T18:35:18.707Z,95324.47
2022-11-09T18:37:45.367Z,95338.53
2022-11-09T18:40:12.058Z,95335.59
2022-11-09T18:42:38.622Z,95342.25
2022-11-09T18:45:05.972Z,95331.94
2022-11-09T18:47:32.523Z,95335.50
2022-11-09T18:49:59.040Z,95345.38
2022-11-09T18:52:25.701Z,95334.09
2022-11-09T18:54:52.255Z,95337.69
2022-11-09T18:57:20.119Z,95331.34
2022-11-09T18:59:46.766Z,95338.84
2022-11-09T19:02:17.638Z,95332.50
2022-11-09T19:04:46.590Z,95329.84
2022-11-09T19:07:13.152Z,95341.25
2022-11-09T19:09:39.751Z,95342.41
2022-11-09T19:12:07.437Z,95349.97
2022-11-09T19:14:35.786Z,95362.44
2022-11-09T19:17:02.291Z,95355.50
2022-11-09T19:19:28.796Z,95361.75
2022-11-09T19:21:59.126Z,95359.59
2022-11-09T19:24:26.665Z,95362.34
2022-11-09T19:26:53.157Z,95359.47
2022-11-09T19:29:19.644Z,95365.13
2022-11-09T19:31:46.538Z,95368.72
2022-11-09T19:34:15.605Z,95364.91
2022-11-09T19:36:42.616Z,95366.88
2022-11-09T19:39:09.882Z,95370.78
2022-11-09T19:41:36.514Z,95371.38
2022-11-09T19:44:03.420Z,95380.16
2022-11-09T19:46:30.647Z,95382.00
2022-11-09T19:48:57.382Z,95378.28
2022-11-09T19:51:24.348Z,95381.50
2022-11-09T19:53:52.189Z,95384.06
2022-11-09T19:56:19.454Z,95398.84
2022-11-09T19:58:52.635Z,95389.59
2022-11-09T20:01:19.471Z,95391.34
2022-11-09T20:03:54.629Z,95395.28
2022-11-09T20:06:22.135Z,95397.22
2022-11-09T20:08:48.797Z,95406.81
2022-11-09T20:11:27.650Z,95391.44
2022-11-09T20:14:04.710Z,95411.31
2022-11-09T20:16:32.482Z,95407.72
2022-11-09T20:19:02.538Z,95410.00
2022-11-09T20:21:29.031Z,95418.03
2022-11-09T20:23:55.559Z,95417.47
2022-11-09T20:26:22.062Z,95415.88
2022-11-09T20:28:48.840Z,95425.25
2022-11-09T20:31:17.729Z,95422.50
2022-11-09T20:33:44.270Z,95428.25
2022-11-09T20:36:10.790Z,95430.47
2022-11-09T20:38:37.554Z,95433.22
2022-11-09T20:41:08.711Z,95429.84
2022-11-09T20:43:36.398Z,95439.25
2022-11-09T20:46:07.763Z,95453.69
2022-11-09T20:51:22.993Z,95452.25
2022-11-09T20:53:52.108Z,95450.13
2022-11-09T20:56:19.833Z,95443.50
2022-11-09T20:58:46.586Z,95459.41
2022-11-09T21:01:19.555Z,95461.22
2022-11-09T21:03:47.416Z,95452.78
2022-11-09T21:06:14.670Z,95461.72
2022-11-09T21:08:46.765Z,95463.31
2022-11-09T21:11:13.600Z,95462.97
2022-11-09T21:13:40.676Z,95466.81
2022-11-09T21:16:13.318Z,95469.00
2022-11-09T21:18:40.274Z,95474.88
2022-11-09T21:21:09.460Z,95473.28
2022-11-09T21:23:39.336Z,95471.25
2022-11-09T21:26:08.158Z,95472.84
2022-11-09T21:28:34.729Z,95478.63
2022-11-09T21:31:02.060Z,95483.03
2022-11-09T21:33:28.875Z,95478.81
2022-11-09T21:35:55.630Z,95481.50
2022-11-09T21:38:22.430Z,95493.53
2022-11-09T21:40:49.888Z,95488.78
2022-11-09T21:43:16.761Z,95494.09
2022-11-09T21:45:43.255Z,95497.00
2022-11-09T21:48:09.788Z,95494.34
2022-11-09T21:50:36.257Z,95501.84
2022-11-09T21:53:02.910Z,95491.22
2022-11-09T21:55:30.321Z,95489.72
2022-11-09T21:57:56.784Z,95494.22
2022-11-09T22:00:23.317Z,95493.19
2022-11-09T22:02:50.692Z,95497.91
2022-11-09T22:05:22.659Z,95494.00
2022-11-09T22:07:49.527Z,95505.88
2022-11-09T22:10:16.214Z,95500.22
2022-11-09T22:12:42.713Z,95504.91
2022-11-09T22:15:10.322Z,95505.38
2022-11-09T22:17:36.900Z,95502.53
2022-11-09T22:20:03.626Z,95496.88
2022-11-09T22:22:32.795Z,95498.97
2022-11-09T22:24:59.472Z,95501.69
2022-11-09T22:27:26.119Z,95505.53
2022-11-09T22:29:52.636Z,95501.63
2022-11-09T22:32:19.133Z,95491.69
2022-11-09T22:34:45.698Z,95500.31
2022-11-09T22:37:12.359Z,95506.44
2022-11-09T22:39:41.795Z,95506.69
2022-11-09T22:42:12.520Z,95504.03
2022-11-09T22:44:39.005Z,95500.72
2022-11-09T22:47:05.615Z,95504.50
2022-11-09T22:49:34.762Z,95511.34
2022-11-09T22:52:01.244Z,95508.09
2022-11-09T22:54:27.894Z,95511.50
2022-11-09T22:56:54.424Z,95499.63
2022-11-09T22:59:20.921Z,95508.53
2022-11-09T23:01:47.391Z,95508.72
2022-11-09T23:04:13.919Z,95514.31
2022-11-09T23:06:40.471Z,95504.72
2022-11-09T23:09:07.055Z,95505.66
2022-11-09T23:11:33.696Z,95496.88
2022-11-09T23:14:00.223Z,95498.47
2022-11-09T23:16:26.742Z,95493.91
2022-11-09T23:18:53.281Z,95506.69
2022-11-09T23:21:40.065Z,95516.25
2022-11-09T23:24:07.936Z,95520.22
2022-11-09T23:26:34.630Z,95521.22
2022-11-09T23:29:01.252Z,95516.53
2022-11-09T23:31:28.030Z,95524.00
2022-11-09T23:33:57.619Z,95533.38
2022-11-09T23:36:26.352Z,95537.22
2022-11-09T23:38:53.235Z,95532.75
2022-11-09T23:41:19.910Z,95530.22
2022-11-09T23:43:49.514Z,95531.34
2022-11-09T23:46:16.826Z,95539.75
2022-11-09T23:48:43.361Z,95535.03
2022-11-09T23:51:10.208Z,95540.56
2022-11-09T23:53:36.687Z,95525.38
2022-11-09T23:56:06.396Z,95531.75
2022-11-09T23:58:33.513Z,95526.88
